Time,TemperatureF,DewpointF,PressureIn,WindDirection,WindDirectionDegrees,WindSpeedMPH,WindSpeedGustMPH,Humidity,HourlyPrecipIn,Conditions,Clouds,dailyrainin,SoftwareType,DateUTC
2013-11-20 01:41:00,37.6,29.7,29.84,WNW,292,2.2,-999.0,73,-99.99,,,0.00,Acu-Link.com,2013-11-20 09:41:00,
2013-11-20 01:58:00,36.9,29.1,29.84,NNE,22,0.0,-999.0,73,-99.99,,,0.00,Acu-Link.com,2013-11-20 09:58:00,
2013-11-20 02:13:00,37.0,31.1,29.85,ENE,67,0.0,-999.0,79,-99.99,,,0.00,Acu-Link.com,2013-11-20 10:13:00,
2013-11-20 02:29:00,37.9,31.0,29.86,ENE,67,1.1,-999.0,76,-99.99,,,0.00,Acu-Link.com,2013-11-20 10:29:00,
2013-11-20 02:49:00,38.7,31.1,29.87,West,270,2.2,-999.0,74,-99.99,,,0.00,Acu-Link.com,2013-11-20 10:49:00,
2013-11-20 03:04:00,39.0,31.4,29.87,NNE,22,3.7,-999.0,74,-99.99,,,0.00,Acu-Link.com,2013-11-20 11:04:00,
2013-11-20 03:19:00,39.2,32.0,29.87,East,90,4.2,-999.0,75,-99.99,,,0.00,Acu-Link.com,2013-11-20 11:19:00,
2013-11-20 03:56:00,39.2,32.0,29.89,ESE,112,5.3,-999.0,75,-99.99,,,0.00,Acu-Link.com,2013-11-20 11:56:00,
2013-11-20 05:20:00,38.1,32.8,29.94,NNE,22,3.7,-999.0,81,-99.99,,,0.00,Acu-Link.com,2013-11-20 13:20:00,
2013-11-20 05:36:00,37.2,32.5,29.96,NNE,22,4.2,-999.0,83,-99.99,,,0.00,Acu-Link.com,2013-11-20 13:36:00,
2013-11-20 05:53:00,36.7,32.0,29.95,NNE,22,5.8,-999.0,83,-99.99,,,0.00,Acu-Link.com,2013-11-20 13:53:00,
2013-11-20 06:39:00,37.0,32.0,29.97,North,0,6.3,-999.0,82,-99.99,,,0.00,Acu-Link.com,2013-11-20 14:39:00,
2013-11-20 06:55:00,36.0,31.3,29.98,ENE,67,1.1,-999.0,83,-99.99,,,0.00,Acu-Link.com,2013-11-20 14:55:00,
2013-11-20 07:16:00,35.4,31.1,29.99,ENE,67,2.7,-999.0,84,-99.99,,,0.00,Acu-Link.com,2013-11-20 15:16:00,
2013-11-20 07:41:00,35.2,31.2,30.00,NE,45,1.1,-999.0,85,-99.99,,,0.00,Acu-Link.com,2013-11-20 15:41:00,
2013-11-20 08:00:00,35.6,31.3,30.01,North,0,2.2,-999.0,84,-99.99,,,0.00,Acu-Link.com,2013-11-20 16:00:00,
2013-11-20 08:32:00,35.6,31.3,30.02,NE,45,1.7,-999.0,84,-99.99,,,0.00,Acu-Link.com,2013-11-20 16:32:00,
2013-11-20 08:47:00,39.0,30.1,30.03,ENE,67,2.7,-999.0,70,-99.99,,,0.00,Acu-Link.com,2013-11-20 16:47:00,
2013-11-20 09:02:00,39.0,30.1,30.03,NNE,22,3.2,-999.0,70,-99.99,,,0.00,Acu-Link.com,2013-11-20 17:02:00,
2013-11-20 09:17:00,39.6,30.3,30.04,ENE,67,3.7,-999.0,69,-99.99,,,0.00,Acu-Link.com,2013-11-20 17:17:00,
2013-11-20 09:32:00,39.9,30.6,30.04,NNE,22,2.7,-999.0,69,-99.99,,,0.00,Acu-Link.com,2013-11-20 17:32:00,
2013-11-20 09:47:00,39.9,30.2,30.05,NE,45,4.2,-999.0,68,-99.99,,,0.00,Acu-Link.com,2013-11-20 17:47:00,
2013-11-20 10:02:00,41.2,30.0,30.05,NE,45,4.7,-999.0,64,-99.99,,,0.00,Acu-Link.com,2013-11-20 18:02:00,
2013-11-20 10:17:00,41.2,29.6,30.06,East,90,4.7,-999.0,63,-99.99,,,0.00,Acu-Link.com,2013-11-20 18:17:00,
2013-11-20 10:32:00,41.0,29.0,30.05,WNW,292,5.3,-999.0,62,-99.99,,,0.00,Acu-Link.com,2013-11-20 18:32:00,
2013-11-20 10:48:00,41.7,30.4,30.06,East,90,6.8,-999.0,64,-99.99,,,0.00,Acu-Link.com,2013-11-20 18:48:00,
2013-11-20 11:03:00,41.2,28.8,30.06,NNE,22,5.3,-999.0,61,-99.99,,,0.00,Acu-Link.com,2013-11-20 19:03:00,
2013-11-20 11:18:00,41.5,27.0,30.06,West,270,8.3,-999.0,56,-99.99,,,0.00,Acu-Link.com,2013-11-20 19:18:00,
2013-11-20 11:33:00,41.7,26.7,30.05,NW,315,7.3,-999.0,55,-99.99,,,0.00,Acu-Link.com,2013-11-20 19:33:00,
2013-11-20 11:48:00,41.9,28.2,30.06,North,0,6.8,-999.0,58,-99.99,,,0.00,Acu-Link.com,2013-11-20 19:48:00,
2013-11-20 12:03:00,41.7,28.0,30.05,WNW,292,9.9,-999.0,58,-99.99,,,0.00,Acu-Link.com,2013-11-20 20:03:00,
2013-11-20 12:18:00,41.7,28.0,30.06,NNW,337,8.9,-999.0,58,-99.99,,,0.00,Acu-Link.com,2013-11-20 20:18:00,
2013-11-20 12:33:00,42.1,27.1,30.07,West,270,7.3,-999.0,55,-99.99,,,0.00,Acu-Link.com,2013-11-20 20:33:00,
2013-11-20 12:48:00,42.6,28.4,30.06,West,270,5.8,-999.0,57,-99.99,,,0.00,Acu-Link.com,2013-11-20 20:48:00,
2013-11-20 13:04:00,43.0,29.2,30.06,West,270,7.8,-999.0,58,-99.99,,,0.00,Acu-Link.com,2013-11-20 21:04:00,
2013-11-20 13:19:00,42.4,28.7,30.06,NW,315,7.8,-999.0,58,-99.99,,,0.00,Acu-Link.com,2013-11-20 21:19:00,
2013-11-20 13:34:00,42.6,28.9,30.07,NW,315,10.4,-999.0,58,-99.99,,,0.00,Acu-Link.com,2013-11-20 21:34:00,
2013-11-20 13:49:00,42.8,28.6,30.06,WNW,292,9.9,-999.0,57,-99.99,,,0.00,Acu-Link.com,2013-11-20 21:49:00,
2013-11-20 14:05:00,42.8,28.2,30.06,NNE,22,8.9,-999.0,56,-99.99,,,0.00,Acu-Link.com,2013-11-20 22:05:00,
2013-11-20 14:21:00,43.2,28.6,30.07,NW,315,5.3,-999.0,56,-99.99,,,0.00,Acu-Link.com,2013-11-20 22:21:00,
2013-11-20 14:36:00,43.3,28.2,30.08,ENE,67,10.4,-999.0,55,-99.99,,,0.00,Acu-Link.com,2013-11-20 22:36:00,
2013-11-20 14:51:00,43.0,27.5,30.08,NE,45,4.7,-999.0,54,-99.99,,,0.00,Acu-Link.com,2013-11-20 22:51:00,
2013-11-20 15:06:00,43.7,29.0,30.09,WNW,292,5.8,-999.0,56,-99.99,,,0.00,Acu-Link.com,2013-11-20 23:06:00,
2013-11-20 15:22:00,43.2,29.0,30.09,North,0,6.8,-999.0,57,-99.99,,,0.00,Acu-Link.com,2013-11-20 23:22:00,
2013-11-20 15:38:00,42.8,29.1,30.09,North,0,6.3,-999.0,58,-99.99,,,0.00,Acu-Link.com,2013-11-20 23:38:00,
2013-11-20 15:53:00,42.4,29.1,30.10,NE,45,7.3,-999.0,59,-99.99,,,0.00,Acu-Link.com,2013-11-20 23:53:00,
2013-11-20 16:09:00,41.7,30.0,30.10,NNW,337,5.8,-999.0,63,-99.99,,,0.00,Acu-Link.com,2013-11-21 00:09:00,
2013-11-20 18:25:00,38.1,29.9,30.13,NE,45,3.7,-999.0,72,-99.99,,,0.00,Acu-Link.com,2013-11-21 02:25:00,
2013-11-20 18:43:00,38.1,29.9,30.13,NNE,22,2.7,-999.0,72,-99.99,,,0.00,Acu-Link.com,2013-11-21 02:43:00,
2013-11-20 19:23:00,37.9,30.7,30.14,SE,135,2.7,-999.0,75,-99.99,,,0.00,Acu-Link.com,2013-11-21 03:23:00,
2013-11-20 20:13:00,36.0,30.7,30.16,SE,135,0.0,-999.0,81,-99.99,,,0.00,Acu-Link.com,2013-11-21 04:13:00,
2013-11-20 21:01:00,36.5,29.7,30.17,NNE,22,3.7,-999.0,76,-99.99,,,0.00,Acu-Link.com,2013-11-21 05:01:00,
2013-11-20 21:19:00,36.3,29.1,30.19,NNE,22,4.7,-999.0,75,-99.99,,,0.00,Acu-Link.com,2013-11-21 05:19:00,
2013-11-20 21:36:00,36.3,29.1,30.19,NE,45,4.7,-999.0,75,-99.99,,,0.00,Acu-Link.com,2013-11-21 05:36:00,
2013-11-20 21:56:00,36.3,29.1,30.19,East,90,2.7,-999.0,75,-99.99,,,0.00,Acu-Link.com,2013-11-21 05:56:00,
2013-11-20 22:14:00,35.6,27.8,30.21,NE,45,5.3,-999.0,73,-99.99,,,0.00,Acu-Link.com,2013-11-21 06:14:00,
2013-11-20 22:35:00,35.6,27.8,30.21,ENE,67,3.2,-999.0,73,-99.99,,,0.00,Acu-Link.com,2013-11-21 06:35:00,
2013-11-20 22:50:00,36.1,28.3,30.22,ENE,67,3.7,-999.0,73,-99.99,,,0.00,Acu-Link.com,2013-11-21 06:50:00,
2013-11-20 23:06:00,36.5,28.3,30.22,NNE,22,2.7,-999.0,72,-99.99,,,0.00,Acu-Link.com,2013-11-21 07:06:00,
2013-11-20 23:29:00,36.5,28.7,30.23,East,90,2.7,-999.0,73,-99.99,,,0.00,Acu-Link.com,2013-11-21 07:29:00,
2013-11-20 23:44:00,36.0,28.9,30.23,ENE,67,2.2,-999.0,75,-99.99,,,0.00,Acu-Link.com,2013-11-21 07:44:00,
2013-11-20 23:59:00,35.6,28.8,30.23,ENE,67,3.2,-999.0,76,-99.99,,,0.00,Acu-Link.com,2013-11-21 07:59:00,